This is the latest recevied weather packets stored in our database for station/object ZL1KPB-13. If no packets are shown the sender has not sent any weather packets the latest 10 day(s).
| Time | Temp. | Humidity | Pressure | Rain* | Wind** | Luminosity | Snow |
|---|---|---|---|---|---|---|---|
| 1777988435 | 12.22° C | 89% | 1033.5 hPa | 0 mm | - | - | - |
| 1777978839 | 13.89° C | 81% | 1034.3 hPa | 0 mm | - | - | - |
| 1777977630 | 13.89° C | 84% | 1034.3 hPa | 0 mm | - | - | - |
| 1777975216 | 13.33° C | 86% | 1034.5 hPa | 0 mm | - | - | - |
| 1777972299 | 12.78° C | 88% | 1034.4 hPa | 0 mm | - | - | - |
| 1777970468 | 13.33° C | 85% | 1034.3 hPa | 0 mm | - | - | - |
| 1777967430 | 13.33° C | 83% | 1034.5 hPa | 0 mm | - | - | - |
| 1777966827 | 13.89° C | 83% | 1034.6 hPa | 0 mm | - | - | - |
| 1777966223 | 13.89° C | 83% | 1034.4 hPa | 0 mm | - | - | - |
| 1777962059 | 13.89° C | 84% | 1034.3 hPa | 0 mm | - | - | - |
| 1777956626 | 15.56° C | 74% | 1034.3 hPa | 0 mm | - | - | - |
| 1777953691 | 16.67° C | 71% | 1034.7 hPa | 0 mm | - | - | - |
| 1777950049 | 17.78° C | 65% | 1034.5 hPa | 0 mm | - | - | - |
| 1777945219 | 18.33° C | 64% | 1035 hPa | 0 mm | - | - | - |
| 1777942865 | 17.78° C | 64% | 1035.5 hPa | 0 mm | - | - | - |
| 1777942260 | 17.78° C | 63% | 1035.6 hPa | 0 mm | - | - | - |
| 1777940449 | 17.78° C | 63% | 1036.2 hPa | 0 mm | - | - | - |
| 1777939241 | 17.22° C | 66% | 1036.4 hPa | 0 mm | - | - | - |
| 1777938035 | 17.22° C | 65% | 1036.6 hPa | 0 mm | - | - | - |
| 1777936224 | 18.33° C | 57% | 1036.9 hPa | 0 mm | - | - | - |
| 1777933287 | 16.67° C | 62% | 1036.8 hPa | 0 mm | - | - | - |
| 1777932060 | 18.33° C | 55% | 1036.9 hPa | 0 mm | - | - | - |
| 1777930250 | 19.44° C | 52% | 1036.7 hPa | 0 mm | - | - | - |
| 1777928462 | 17.78° C | 61% | 1036.6 hPa | 0 mm | - | - | - |
| 1777927838 | 17.22° C | 68% | 1036.6 hPa | 0 mm | - | - | - |
* Rain latest hour (hover to see other rain measurements)
** Current wind speed in m/s (hover to see current wind gust speed)